Maersk Sheerness — 9V5246 — position and weather

sailwx.info

Track history (hours):
 
Tides and Currents Weather Stations Pressure Air Temp Water Temp Dewpoint Dewpoint Depression Visibility Wind Speed Wind Dir Waves Ship Positions

Maersk Sheerness

Last reported at 2017-Sep-20 13:29 UTC. Time now 2017-Sep-21 15:53 UTC.
Position N 36°51' W 075°52'.

Length 335 m; draft 13.2 m.

Type: Ship (hazmat cat A). MMSI: 563001100.

Date/timePositionNaut miles runAvg speedWind from/ knotsBaromVisibWave heightAir tempDewpointWater temp
2017-Sep-20 13:29N 36°51' W 075°52'714.8
2017-Sep-20 13:00N 36°56' W 075°58'611.1
2017-Sep-20 12:30N 36°58' W 076°05'713.7
2017-Sep-20 12:00N 37°00' W 076°13'611.6
2017-Sep-20 11:29N 36°58' W 076°20'4 8.2
2017-Sep-20 11:00N 36°54' W 076°20'2 3.3
2017-Sep-20 10:30N 36°52' W 076°21'0 0.3
2017-Sep-20 09:58N 36°53' W 076°21'0 0.0
2017-Sep-20 09:28N 36°53' W 076°21'0 0.0
2017-Sep-20 08:58N 36°53' W 076°21'0 0.0
2017-Sep-20 08:28N 36°53' W 076°21'0 0.0
2017-Sep-20 07:58N 36°53' W 076°21'0 0.0
2017-Sep-20 07:28N 36°53' W 076°21'0 0.0
2017-Sep-20 06:55N 36°53' W 076°21'0 0.0
2017-Sep-20 06:28N 36°53' W 076°21'0 0.0
2017-Sep-20 05:58N 36°53' W 076°21'0 0.0
2017-Sep-20 05:19N 36°53' W 076°21'0 0.0
2017-Sep-20 04:58N 36°53' W 076°21'0 0.0
2017-Sep-20 04:28N 36°53' W 076°21'0 0.0
2017-Sep-20 03:55N 36°53' W 076°21'0 0.0
2017-Sep-20 03:28N 36°53' W 076°21'0 0.0
2017-Sep-20 02:58N 36°53' W 076°21'0 0.0
2017-Sep-20 02:28N 36°53' W 076°21'0 0.0
2017-Sep-20 01:58N 36°53' W 076°21'0 0.0
2017-Sep-20 01:22N 36°53' W 076°21'0 0.0
2017-Sep-20 00:58N 36°53' W 076°21'0 0.0
2017-Sep-20 00:28N 36°53' W 076°21'0 0.0
2017-Sep-19 23:58N 36°53' W 076°21'0 0.0
2017-Sep-19 23:28N 36°53' W 076°21'0 0.0
2017-Sep-19 22:58N 36°53' W 076°21'0 0.0
2017-Sep-19 22:25N 36°53' W 076°21'0 0.0
2017-Sep-19 21:58N 36°53' W 076°21'0 0.0
2017-Sep-19 21:25N 36°53' W 076°21'0 0.0
2017-Sep-19 20:58N 36°53' W 076°21'0 0.0
2017-Sep-19 20:28N 36°53' W 076°21'0 0.0
2017-Sep-19 19:58N 36°53' W 076°21'0 0.0
2017-Sep-19 19:28N 36°53' W 076°21'0 0.0
2017-Sep-19 18:58N 36°53' W 076°21'0 0.0
2017-Sep-19 18:25N 36°53' W 076°21'0 0.0
2017-Sep-19 17:58N 36°53' W 076°21'0 0.0
2017-Sep-19 17:28N 36°53' W 076°21'0 0.0
2017-Sep-19 16:58N 36°53' W 076°21'0 0.0
2017-Sep-19 16:10N 36°53' W 076°21'0 0.0
2017-Sep-19 15:58N 36°53' W 076°21'0 0.0
2017-Sep-19 15:28N 36°53' W 076°21'0 0.0
2017-Sep-19 14:58N 36°53' W 076°21'0 0.0
2017-Sep-19 14:28N 36°53' W 076°21'0 0.0
2017-Sep-19 13:58N 36°53' W 076°21'0 0.0
2017-Sep-19 13:28N 36°53' W 076°21'0 0.0
2017-Sep-19 12:58N 36°53' W 076°21'0 0.0
2017-Sep-19 12:28N 36°53' W 076°21'0 0.0
2017-Sep-19 11:58N 36°53' W 076°21'0 0.0
2017-Sep-19 11:07N 36°53' W 076°21'0 0.0
2017-Sep-19 10:55N 36°53' W 076°21'0 0.0
2017-Sep-19 10:22N 36°53' W 076°21'0 0.0
2017-Sep-19 09:58N 36°53' W 076°21'0 0.7
2017-Sep-19 09:30N 36°53' W 076°21'2 4.7
2017-Sep-19 09:00N 36°55' W 076°20'510.2
2017-Sep-19 08:30N 36°60' W 076°18'815.7
2017-Sep-19 07:59N 36°59' W 076°08'714.6
2017-Sep-19 07:31N 36°57' W 075°60'4 8.8
2017-Sep-19 07:00N 37°01' W 076°03'816.5
2017-Sep-19 06:30N 37°08' W 076°08'2716.7
2017-Sep-19 04:54N 37°34' W 076°03'817.0
2017-Sep-19 04:25N 37°40' W 076°09'1616.6
2017-Sep-19 03:27N 37°57' W 076°10'2817.9
2017-Sep-19 01:53N 38°24' W 076°20'1118.8
2017-Sep-19 01:17N 38°34' W 076°26'918.2
2017-Sep-19 00:46N 38°43' W 076°26'518.3
2017-Sep-19 00:30N 38°48' W 076°25'918.5
2017-Sep-19 00:01N 38°57' W 076°23'815.0
2017-Sep-18 23:30N 39°05' W 076°24'510.6
2017-Sep-18 23:00N 39°10' W 076°25'510.4
2017-Sep-18 22:30N 39°12' W 076°31'3 5.4
2017-Sep-18 22:00N 39°15' W 076°32'0 0.4
2017-Sep-18 21:29N 39°15' W 076°32'0 0.1
2017-Sep-18 20:59N 39°15' W 076°33'0 0.0
2017-Sep-18 20:29N 39°15' W 076°33'0 0.0
2017-Sep-18 19:59N 39°15' W 076°33'0 0.0
2017-Sep-18 19:29N 39°15' W 076°33'0 0.0
2017-Sep-18 18:59N 39°15' W 076°33'0 0.0
2017-Sep-18 18:29N 39°15' W 076°33'0 0.0
2017-Sep-18 17:59N 39°15' W 076°33'0 0.0
2017-Sep-18 17:29N 39°15' W 076°33'0 0.0
2017-Sep-18 16:59N 39°15' W 076°33'0 0.0
2017-Sep-18 16:29N 39°15' W 076°33'0 0.0
2017-Sep-18 15:59N 39°15' W 076°33'0 0.0
2017-Sep-18 15:29N 39°15' W 076°33'0 0.0
2017-Sep-18 14:59N 39°15' W 076°32'0 0.0
2017-Sep-18 14:29N 39°15' W 076°33'0 0.0
2017-Sep-18 13:59N 39°15' W 076°33'0 0.0
2017-Sep-18 13:29N 39°15' W 076°33'0 0.0
2017-Sep-18 12:59N 39°15' W 076°33'0 0.0
2017-Sep-18 12:29N 39°15' W 076°33'0 0.0
2017-Sep-18 11:59N 39°15' W 076°33'0 0.0
2017-Sep-18 11:29N 39°15' W 076°33'0 0.0
2017-Sep-18 10:58N 39°15' W 076°33'0 0.0
2017-Sep-18 10:29N 39°15' W 076°33'0 0.0
2017-Sep-18 09:58N 39°15' W 076°33'0 0.0
2017-Sep-18 09:28N 39°15' W 076°33'0 0.0
2017-Sep-18 08:58N 39°15' W 076°32'0 0.0
2017-Sep-18 08:29N 39°15' W 076°33'0 0.0
2017-Sep-18 07:58N 39°15' W 076°33'0 0.0
2017-Sep-18 07:28N 39°15' W 076°33'0 0.0
2017-Sep-18 06:58N 39°15' W 076°33'0 0.0
2017-Sep-18 06:28N 39°15' W 076°33'0 0.0
2017-Sep-18 05:58N 39°15' W 076°33'0 0.0
2017-Sep-18 05:28N 39°15' W 076°33'0 0.0
2017-Sep-18 04:58N 39°15' W 076°33'0 0.0
2017-Sep-18 04:28N 39°15' W 076°33'0 0.0
2017-Sep-18 03:58N 39°15' W 076°33'0 0.0
2017-Sep-18 03:28N 39°15' W 076°33'0 0.0
2017-Sep-18 02:58N 39°15' W 076°33'0 0.0
2017-Sep-18 02:28N 39°15' W 076°33'0 0.0
2017-Sep-18 01:58N 39°15' W 076°32'0 0.0
2017-Sep-18 01:28N 39°15' W 076°33'0 0.0
2017-Sep-18 00:58N 39°15' W 076°33'0 0.0
2017-Sep-18 00:28N 39°15' W 076°33'0 0.0
2017-Sep-17 23:58N 39°15' W 076°33'0 0.0
2017-Sep-17 23:25N 39°15' W 076°33'0 0.0
2017-Sep-17 22:58N 39°15' W 076°33'0 0.0
2017-Sep-17 22:28N 39°15' W 076°33'0 0.0
2017-Sep-17 21:58N 39°15' W 076°33'0 0.0
2017-Sep-17 21:28N 39°15' W 076°33'0 0.0
2017-Sep-17 20:55N 39°15' W 076°33'0 0.0
2017-Sep-17 20:25N 39°15' W 076°33'0 0.0
2017-Sep-17 19:58N 39°15' W 076°33'0 0.0
2017-Sep-17 19:25N 39°15' W 076°33'0 0.0
2017-Sep-17 18:58N 39°15' W 076°33'0 0.0
2017-Sep-17 18:25N 39°15' W 076°33'0 0.0
2017-Sep-17 17:58N 39°15' W 076°33'0 0.0
2017-Sep-17 17:25N 39°15' W 076°33'0 0.0
2017-Sep-17 16:55N 39°15' W 076°33'0 0.0
2017-Sep-17 16:25N 39°15' W 076°33'0 0.0
2017-Sep-17 15:58N 39°15' W 076°33'0 0.0
2017-Sep-17 15:28N 39°15' W 076°33'0 0.0
2017-Sep-17 14:58N 39°15' W 076°33'0 0.0
2017-Sep-17 14:28N 39°15' W 076°33'0 0.0
2017-Sep-17 13:58N 39°15' W 076°33'0 0.0
2017-Sep-17 13:28N 39°15' W 076°33'0 0.0
2017-Sep-17 12:58N 39°15' W 076°33'0 0.0
2017-Sep-17 12:28N 39°15' W 076°33'0 0.0
2017-Sep-17 11:58N 39°15' W 076°33'0 0.0
2017-Sep-17 11:25N 39°15' W 076°33'0 0.0
2017-Sep-17 10:55N 39°15' W 076°33'0 0.6
2017-Sep-17 10:31N 39°15' W 076°32'2 4.0
2017-Sep-17 10:01N 39°13' W 076°32'4 7.4
2017-Sep-17 09:30N 39°11' W 076°27'611.3
2017-Sep-17 09:00N 39°06' W 076°24'612.9
2017-Sep-17 08:30N 38°60' W 076°23'816.7
2017-Sep-17 08:01N 38°52' W 076°24'918.8
2017-Sep-17 07:31N 38°42' W 076°26'918.4
2017-Sep-17 07:00N 38°33' W 076°26'918.9
2017-Sep-17 06:31N 38°25' W 076°21'918.8
2017-Sep-17 06:01N 38°16' W 076°16'918.6
2017-Sep-17 05:31N 38°07' W 076°13'918.4
2017-Sep-17 05:01N 37°58' W 076°11'918.0
2017-Sep-17 04:31N 37°49' W 076°10'917.2
2017-Sep-17 04:01N 37°40' W 076°09'816.2
2017-Sep-17 03:31N 37°34' W 076°03'816.6
2017-Sep-17 03:00N 37°26' W 076°05'917.1
2017-Sep-17 02:31N 37°17' W 076°07'816.5
2017-Sep-17 02:00N 37°09' W 076°09'815.7
2017-Sep-17 01:30N 37°03' W 076°04'611.4
2017-Sep-17 01:00N 36°58' W 075°60'510.8
2017-Sep-17 00:30N 36°55' W 075°54'5 9.9
2017-Sep-17 00:00N 36°52' W 075°50'5 9.6
2017-Sep-16 23:31N 36°49' W 075°44'90 9.2
2017-Sep-16 13:47N 37°59' W 074°32'412.8
2017-Sep-16 13:30N 38°02' W 074°31'713.2
2017-Sep-16 12:59N 38°08' W 074°27'613.2
2017-Sep-16 12:30N 38°14' W 074°25'613.1
2017-Sep-16 12:01N 38°20' W 074°22'713.0
2017-Sep-16 11:30N 38°26' W 074°19'713.0
2017-Sep-16 11:00N 38°33' W 074°16'612.8
2017-Sep-16 10:30N 38°38' W 074°13'612.7
2017-Sep-16 10:01N 38°44' W 074°10'612.7
2017-Sep-16 09:30N 38°50' W 074°06'612.6
2017-Sep-16 09:00N 38°56' W 074°04'612.7
2017-Sep-16 08:31N 39°02' W 074°02'612.6
2017-Sep-16 08:00N 39°08' W 073°59'612.6
2017-Sep-16 07:30N 39°14' W 073°57'612.6
2017-Sep-16 07:00N 39°20' W 073°55'612.7
2017-Sep-16 06:30N 39°27' W 073°53'612.5
2017-Sep-16 06:00N 39°33' W 073°52'612.5
2017-Sep-16 05:30N 39°39' W 073°52'612.7
2017-Sep-16 05:00N 39°45' W 073°51'612.7
2017-Sep-16 04:30N 39°52' W 073°51'612.7
2017-Sep-16 04:00N 39°58' W 073°50'612.6
2017-Sep-16 03:30N 40°04' W 073°50'611.9
2017-Sep-16 02:58N 40°11' W 073°50'510.0
2017-Sep-16 02:30N 40°15' W 073°50'510.2
2017-Sep-16 02:00N 40°21' W 073°49'5 9.6
2017-Sep-16 01:30N 40°25' W 073°49'611.9
2017-Sep-16 01:00N 40°29' W 073°55'816.1
2017-Sep-16 00:30N 40°35' W 074°02'510.0
2017-Sep-16 00:00N 40°39' W 074°06'2 4.8
2017-Sep-15 23:30N 40°39' W 074°09'1 1.4
2017-Sep-15 23:00N 40°40' W 074°09'0 0.0
2017-Sep-15 22:30N 40°40' W 074°09'0 0.0
2017-Sep-15 22:00N 40°40' W 074°09'0 0.0
2017-Sep-15 21:30N 40°40' W 074°09'0 0.0
2017-Sep-15 21:00N 40°40' W 074°09'0 0.0
2017-Sep-15 20:30N 40°40' W 074°09'0 0.0
2017-Sep-15 20:00N 40°40' W 074°09'0 0.0
2017-Sep-15 19:30N 40°40' W 074°09'0 0.0
2017-Sep-15 19:00N 40°40' W 074°09'0 0.0
2017-Sep-15 18:30N 40°40' W 074°09'0 0.0
2017-Sep-15 18:00N 40°40' W 074°09'0 0.0
2017-Sep-15 17:30N 40°40' W 074°09'0 0.0
2017-Sep-15 17:00N 40°40' W 074°09'0 0.0
2017-Sep-15 16:30N 40°40' W 074°09'0 0.0
2017-Sep-15 16:00N 40°40' W 074°09'0 0.0
2017-Sep-15 15:30N 40°40' W 074°09'0 0.0
2017-Sep-15 15:00N 40°40' W 074°09'0 0.0
2017-Sep-15 14:30N 40°40' W 074°09'0 0.0
2017-Sep-15 13:59N 40°40' W 074°09'0 0.0
2017-Sep-15 13:29N 40°40' W 074°09'0 0.0
2017-Sep-15 12:59N 40°40' W 074°09'0 0.0
2017-Sep-15 12:29N 40°40' W 074°09'0 0.0
2017-Sep-15 11:59N 40°40' W 074°09'0 0.0
2017-Sep-15 11:29N 40°40' W 074°09'0 0.0
2017-Sep-15 10:59N 40°40' W 074°09'0 0.0
2017-Sep-15 10:29N 40°40' W 074°09'0 0.0
2017-Sep-15 09:59N 40°40' W 074°09'0 0.0
2017-Sep-15 09:29N 40°40' W 074°09'0 0.0
2017-Sep-15 08:59N 40°40' W 074°09'0 0.0
2017-Sep-15 08:29N 40°40' W 074°09'0 0.0
2017-Sep-15 07:59N 40°40' W 074°09'0 0.0
2017-Sep-15 07:29N 40°40' W 074°09'0 0.0
2017-Sep-15 06:59N 40°40' W 074°09'0 0.0
2017-Sep-15 06:29N 40°40' W 074°09'0 0.0
2017-Sep-15 05:59N 40°40' W 074°09'0 0.0
2017-Sep-15 05:29N 40°40' W 074°09'0 0.0
2017-Sep-15 04:59N 40°40' W 074°09'0 0.0
2017-Sep-15 04:29N 40°40' W 074°09'0 0.0
2017-Sep-15 03:59N 40°40' W 074°09'0 0.0
2017-Sep-15 03:29N 40°40' W 074°09'0 0.0
2017-Sep-15 02:59N 40°40' W 074°09'0 0.0
2017-Sep-15 02:29N 40°40' W 074°09'0 0.0
2017-Sep-15 01:59N 40°40' W 074°09'0 0.0
2017-Sep-15 01:29N 40°40' W 074°09'0 0.0
2017-Sep-15 00:59N 40°40' W 074°09'0 0.0
2017-Sep-15 00:29N 40°40' W 074°09'0 0.0
2017-Sep-14 23:59N 40°40' W 074°09'0 0.0
2017-Sep-14 23:29N 40°40' W 074°09'0 0.0
2017-Sep-14 22:59N 40°40' W 074°09'0 0.0
2017-Sep-14 22:29N 40°40' W 074°09'0 0.0
2017-Sep-14 21:56N 40°40' W 074°09'0 0.0
2017-Sep-14 21:29N 40°40' W 074°09'0 0.0
2017-Sep-14 20:59N 40°40' W 074°09'0 0.0
2017-Sep-14 20:29N 40°40' W 074°09'0 0.0
2017-Sep-14 19:59N 40°40' W 074°09'0 0.0
2017-Sep-14 19:29N 40°40' W 074°09'0 0.0
2017-Sep-14 18:59N 40°40' W 074°09'0 0.0
2017-Sep-14 18:29N 40°40' W 074°09'0 0.0
2017-Sep-14 17:59N 40°40' W 074°09'0 0.0
2017-Sep-14 17:29N 40°40' W 074°09'0 0.0
2017-Sep-14 16:59N 40°40' W 074°09'0 0.0
2017-Sep-14 16:29N 40°40' W 074°09'0 0.0
2017-Sep-14 15:59N 40°40' W 074°09'0 0.0
2017-Sep-14 15:29N 40°40' W 074°09'0 0.0
2017-Sep-14 14:59N 40°40' W 074°09'0 0.0
2017-Sep-14 14:29N 40°40' W 074°09'0 0.0
2017-Sep-14 13:59N 40°40' W 074°09'0 0.0
2017-Sep-14 13:29N 40°40' W 074°09'0 0.0
2017-Sep-14 12:59N 40°40' W 074°09'0 0.0
2017-Sep-14 12:29N 40°40' W 074°09'0 0.0
2017-Sep-14 11:59N 40°40' W 074°09'0 0.0
2017-Sep-14 11:29N 40°40' W 074°09'0 0.0
2017-Sep-14 10:59N 40°40' W 074°09'0 0.0
2017-Sep-14 10:29N 40°40' W 074°09'0 0.0
2017-Sep-14 09:59N 40°40' W 074°09'0 0.0
2017-Sep-14 09:29N 40°40' W 074°09'0 0.0
2017-Sep-14 08:59N 40°40' W 074°09'0 0.0
2017-Sep-14 08:29N 40°40' W 074°09'0 0.0
2017-Sep-14 07:59N 40°40' W 074°09'0 0.0
2017-Sep-14 07:29N 40°40' W 074°09'0 0.0
2017-Sep-14 06:59N 40°40' W 074°09'0 0.0
2017-Sep-14 06:29N 40°40' W 074°09'0 0.0
2017-Sep-14 05:59N 40°40' W 074°09'0 0.0
2017-Sep-14 05:28N 40°40' W 074°09'0 0.0
2017-Sep-14 04:58N 40°40' W 074°09'0 0.0
2017-Sep-14 04:28N 40°40' W 074°09'0 0.0
2017-Sep-14 03:58N 40°40' W 074°09'0 0.0
2017-Sep-14 03:28N 40°40' W 074°09'0 0.0
2017-Sep-14 02:58N 40°40' W 074°09'0 0.0
2017-Sep-14 02:28N 40°40' W 074°09'0 0.0
2017-Sep-14 01:58N 40°40' W 074°09'0 0.0
2017-Sep-14 01:28N 40°40' W 074°09'0 0.0
2017-Sep-14 00:58N 40°40' W 074°09'0 0.0
2017-Sep-14 00:25N 40°40' W 074°09'0 0.0
2017-Sep-13 23:58N 40°40' W 074°09'0 0.0
2017-Sep-13 23:28N 40°40' W 074°09'0 0.0
2017-Sep-13 22:58N 40°40' W 074°09'0 0.0
2017-Sep-13 22:28N 40°40' W 074°09'0 0.0
2017-Sep-13 21:58N 40°40' W 074°09'1 2.8
2017-Sep-13 21:30N 40°39' W 074°09'3 5.2
2017-Sep-13 21:00N 40°39' W 074°06'3 6.8
2017-Sep-13 20:30N 40°36' W 074°03'611.7
2017-Sep-13 20:00N 40°31' W 073°59'5 9.4
2017-Sep-13 19:30N 40°29' W 073°54'5 9.2
2017-Sep-13 19:00N 40°27' W 073°48'1 2.0
2017-Sep-13 18:30N 40°26' W 073°48'4 8.9
2017-Sep-13 18:00N 40°22' W 073°46'510.0
2017-Sep-13 17:30N 40°17' W 073°46'5 9.8
2017-Sep-13 17:00N 40°12' W 073°45'814.7
2017-Sep-13 16:28N 40°04' W 073°43'715.1
2017-Sep-13 16:00N 39°57' W 073°43'714.1
2017-Sep-13 15:28N 39°50' W 073°42'714.6
2017-Sep-13 15:00N 39°43' W 073°42'714.5
2017-Sep-13 14:29N 39°35' W 073°42'714.2
2017-Sep-13 14:00N 39°29' W 073°43'714.1
2017-Sep-13 13:30N 39°22' W 073°43'713.7
2017-Sep-13 13:00N 39°15' W 073°44'815.7
2017-Sep-13 12:30N 39°07' W 073°44'815.7
2017-Sep-13 12:00N 38°59' W 073°45'815.5
2017-Sep-13 11:30N 38°51' W 073°45'815.7
2017-Sep-13 11:00N 38°43' W 073°46'815.5
2017-Sep-13 10:30N 38°36' W 073°46'815.4
2017-Sep-13 10:00N 38°28' W 073°46'714.0
2017-Sep-13 09:30N 38°21' W 073°46'714.1
2017-Sep-13 09:00N 38°14' W 073°47'714.6
2017-Sep-13 08:30N 38°07' W 073°47'714.8
2017-Sep-13 08:00N 37°59' W 073°48'815.1
2017-Sep-13 07:30N 37°52' W 073°48'815.1
2017-Sep-13 07:00N 37°44' W 073°49'815.1
2017-Sep-13 06:28N 37°36' W 073°49'715.2
2017-Sep-13 06:00N 37°29' W 073°49'714.9
2017-Sep-13 05:30N 37°22' W 073°50'814.9
2017-Sep-13 04:59N 37°14' W 073°51'714.9
2017-Sep-13 04:31N 37°07' W 073°51'714.4
2017-Sep-13 04:00N 36°60' W 073°52'714.7
2017-Sep-13 03:30N 36°52' W 073°52'914.4
2017-Sep-13 02:53N 36°43' W 073°53'714.8
2017-Sep-13 02:24N 36°36' W 073°53'615.0
2017-Sep-13 02:00N 36°30' W 073°53'816.5
2017-Sep-13 01:30N 36°22' W 073°53'1018.0
2017-Sep-13 00:58N 36°12' W 073°54'817.9
2017-Sep-13 00:30N 36°04' W 073°55'917.6
2017-Sep-13 00:00N 35°55' W 073°55'2917.3
2017-Sep-12 22:20N 35°26' W 073°57'616.6
2017-Sep-12 21:59N 35°21' W 073°58'  
Track history (hours):
 
Tides and Currents Weather Stations Pressure Air Temp Water Temp Dewpoint Dewpoint Depression Visibility Wind Speed Wind Dir Waves Ship Positions

Maersk Sheerness

Last reported at 2017-Sep-20 13:29 UTC. Time now 2017-Sep-21 15:53 UTC.
Position N 36°51' W 075°52'.

Length 335 m; draft 13.2 m.

Type: Ship (hazmat cat A). MMSI: 563001100.

Date/timePositionNaut miles runAvg speedWind from/ knotsBaromVisibWave heightAir tempDewpointWater temp
2017-Sep-20 13:29N 36°51' W 075°52'714.8
2017-Sep-20 13:00N 36°56' W 075°58'611.1
2017-Sep-20 12:30N 36°58' W 076°05'713.7
2017-Sep-20 12:00N 37°00' W 076°13'611.6
2017-Sep-20 11:29N 36°58' W 076°20'4 8.2
2017-Sep-20 11:00N 36°54' W 076°20'2 3.3
2017-Sep-20 10:30N 36°52' W 076°21'0 0.3
2017-Sep-20 09:58N 36°53' W 076°21'0 0.0
2017-Sep-20 09:28N 36°53' W 076°21'0 0.0
2017-Sep-20 08:58N 36°53' W 076°21'0 0.0
2017-Sep-20 08:28N 36°53' W 076°21'0 0.0
2017-Sep-20 07:58N 36°53' W 076°21'0 0.0
2017-Sep-20 07:28N 36°53' W 076°21'0 0.0
2017-Sep-20 06:55N 36°53' W 076°21'0 0.0
2017-Sep-20 06:28N 36°53' W 076°21'0 0.0
2017-Sep-20 05:58N 36°53' W 076°21'0 0.0
2017-Sep-20 05:19N 36°53' W 076°21'0 0.0
2017-Sep-20 04:58N 36°53' W 076°21'0 0.0
2017-Sep-20 04:28N 36°53' W 076°21'0 0.0
2017-Sep-20 03:55N 36°53' W 076°21'0 0.0
2017-Sep-20 03:28N 36°53' W 076°21'0 0.0
2017-Sep-20 02:58N 36°53' W 076°21'0 0.0
2017-Sep-20 02:28N 36°53' W 076°21'0 0.0
2017-Sep-20 01:58N 36°53' W 076°21'0 0.0
2017-Sep-20 01:22N 36°53' W 076°21'0 0.0
2017-Sep-20 00:58N 36°53' W 076°21'0 0.0
2017-Sep-20 00:28N 36°53' W 076°21'0 0.0
2017-Sep-19 23:58N 36°53' W 076°21'0 0.0
2017-Sep-19 23:28N 36°53' W 076°21'0 0.0
2017-Sep-19 22:58N 36°53' W 076°21'0 0.0
2017-Sep-19 22:25N 36°53' W 076°21'0 0.0
2017-Sep-19 21:58N 36°53' W 076°21'0 0.0
2017-Sep-19 21:25N 36°53' W 076°21'0 0.0
2017-Sep-19 20:58N 36°53' W 076°21'0 0.0
2017-Sep-19 20:28N 36°53' W 076°21'0 0.0
2017-Sep-19 19:58N 36°53' W 076°21'0 0.0
2017-Sep-19 19:28N 36°53' W 076°21'0 0.0
2017-Sep-19 18:58N 36°53' W 076°21'0 0.0
2017-Sep-19 18:25N 36°53' W 076°21'0 0.0
2017-Sep-19 17:58N 36°53' W 076°21'0 0.0
2017-Sep-19 17:28N 36°53' W 076°21'0 0.0
2017-Sep-19 16:58N 36°53' W 076°21'0 0.0
2017-Sep-19 16:10N 36°53' W 076°21'0 0.0
2017-Sep-19 15:58N 36°53' W 076°21'0 0.0
2017-Sep-19 15:28N 36°53' W 076°21'0 0.0
2017-Sep-19 14:58N 36°53' W 076°21'0 0.0
2017-Sep-19 14:28N 36°53' W 076°21'0 0.0
2017-Sep-19 13:58N 36°53' W 076°21'0 0.0
2017-Sep-19 13:28N 36°53' W 076°21'0 0.0
2017-Sep-19 12:58N 36°53' W 076°21'0 0.0
2017-Sep-19 12:28N 36°53' W 076°21'0 0.0
2017-Sep-19 11:58N 36°53' W 076°21'0 0.0
2017-Sep-19 11:07N 36°53' W 076°21'0 0.0
2017-Sep-19 10:55N 36°53' W 076°21'0 0.0
2017-Sep-19 10:22N 36°53' W 076°21'0 0.0
2017-Sep-19 09:58N 36°53' W 076°21'0 0.7
2017-Sep-19 09:30N 36°53' W 076°21'2 4.7
2017-Sep-19 09:00N 36°55' W 076°20'510.2
2017-Sep-19 08:30N 36°60' W 076°18'815.7
2017-Sep-19 07:59N 36°59' W 076°08'714.6
2017-Sep-19 07:31N 36°57' W 075°60'4 8.8
2017-Sep-19 07:00N 37°01' W 076°03'816.5
2017-Sep-19 06:30N 37°08' W 076°08'2716.7
2017-Sep-19 04:54N 37°34' W 076°03'817.0
2017-Sep-19 04:25N 37°40' W 076°09'1616.6
2017-Sep-19 03:27N 37°57' W 076°10'2817.9
2017-Sep-19 01:53N 38°24' W 076°20'1118.8
2017-Sep-19 01:17N 38°34' W 076°26'918.2
2017-Sep-19 00:46N 38°43' W 076°26'518.3
2017-Sep-19 00:30N 38°48' W 076°25'918.5
2017-Sep-19 00:01N 38°57' W 076°23'815.0
2017-Sep-18 23:30N 39°05' W 076°24'510.6
2017-Sep-18 23:00N 39°10' W 076°25'510.4
2017-Sep-18 22:30N 39°12' W 076°31'3 5.4
2017-Sep-18 22:00N 39°15' W 076°32'0 0.4
2017-Sep-18 21:29N 39°15' W 076°32'0 0.1
2017-Sep-18 20:59N 39°15' W 076°33'0 0.0
2017-Sep-18 20:29N 39°15' W 076°33'0 0.0
2017-Sep-18 19:59N 39°15' W 076°33'0 0.0
2017-Sep-18 19:29N 39°15' W 076°33'0 0.0
2017-Sep-18 18:59N 39°15' W 076°33'0 0.0
2017-Sep-18 18:29N 39°15' W 076°33'0 0.0
2017-Sep-18 17:59N 39°15' W 076°33'0 0.0
2017-Sep-18 17:29N 39°15' W 076°33'0 0.0
2017-Sep-18 16:59N 39°15' W 076°33'0 0.0
2017-Sep-18 16:29N 39°15' W 076°33'0 0.0
2017-Sep-18 15:59N 39°15' W 076°33'0 0.0
2017-Sep-18 15:29N 39°15' W 076°33'0 0.0
2017-Sep-18 14:59N 39°15' W 076°32'0 0.0
2017-Sep-18 14:29N 39°15' W 076°33'0 0.0
2017-Sep-18 13:59N 39°15' W 076°33'0 0.0
2017-Sep-18 13:29N 39°15' W 076°33'0 0.0
2017-Sep-18 12:59N 39°15' W 076°33'0 0.0
2017-Sep-18 12:29N 39°15' W 076°33'0 0.0
2017-Sep-18 11:59N 39°15' W 076°33'0 0.0
2017-Sep-18 11:29N 39°15' W 076°33'0 0.0
2017-Sep-18 10:58N 39°15' W 076°33'0 0.0
2017-Sep-18 10:29N 39°15' W 076°33'0 0.0
2017-Sep-18 09:58N 39°15' W 076°33'0 0.0
2017-Sep-18 09:28N 39°15' W 076°33'0 0.0
2017-Sep-18 08:58N 39°15' W 076°32'0 0.0
2017-Sep-18 08:29N 39°15' W 076°33'0 0.0
2017-Sep-18 07:58N 39°15' W 076°33'0 0.0
2017-Sep-18 07:28N 39°15' W 076°33'0 0.0
2017-Sep-18 06:58N 39°15' W 076°33'0 0.0
2017-Sep-18 06:28N 39°15' W 076°33'0 0.0
2017-Sep-18 05:58N 39°15' W 076°33'0 0.0
2017-Sep-18 05:28N 39°15' W 076°33'0 0.0
2017-Sep-18 04:58N 39°15' W 076°33'0 0.0
2017-Sep-18 04:28N 39°15' W 076°33'0 0.0
2017-Sep-18 03:58N 39°15' W 076°33'0 0.0
2017-Sep-18 03:28N 39°15' W 076°33'0 0.0
2017-Sep-18 02:58N 39°15' W 076°33'0 0.0
2017-Sep-18 02:28N 39°15' W 076°33'0 0.0
2017-Sep-18 01:58N 39°15' W 076°32'0 0.0
2017-Sep-18 01:28N 39°15' W 076°33'0 0.0
2017-Sep-18 00:58N 39°15' W 076°33'0 0.0
2017-Sep-18 00:28N 39°15' W 076°33'0 0.0
2017-Sep-17 23:58N 39°15' W 076°33'0 0.0
2017-Sep-17 23:25N 39°15' W 076°33'0 0.0
2017-Sep-17 22:58N 39°15' W 076°33'0 0.0
2017-Sep-17 22:28N 39°15' W 076°33'0 0.0
2017-Sep-17 21:58N 39°15' W 076°33'0 0.0
2017-Sep-17 21:28N 39°15' W 076°33'0 0.0
2017-Sep-17 20:55N 39°15' W 076°33'0 0.0
2017-Sep-17 20:25N 39°15' W 076°33'0 0.0
2017-Sep-17 19:58N 39°15' W 076°33'0 0.0
2017-Sep-17 19:25N 39°15' W 076°33'0 0.0
2017-Sep-17 18:58N 39°15' W 076°33'0 0.0
2017-Sep-17 18:25N 39°15' W 076°33'0 0.0
2017-Sep-17 17:58N 39°15' W 076°33'0 0.0
2017-Sep-17 17:25N 39°15' W 076°33'0 0.0
2017-Sep-17 16:55N 39°15' W 076°33'0 0.0
2017-Sep-17 16:25N 39°15' W 076°33'0 0.0
2017-Sep-17 15:58N 39°15' W 076°33'0 0.0
2017-Sep-17 15:28N 39°15' W 076°33'0 0.0
2017-Sep-17 14:58N 39°15' W 076°33'0 0.0
2017-Sep-17 14:28N 39°15' W 076°33'0 0.0
2017-Sep-17 13:58N 39°15' W 076°33'0 0.0
2017-Sep-17 13:28N 39°15' W 076°33'0 0.0
2017-Sep-17 12:58N 39°15' W 076°33'0 0.0
2017-Sep-17 12:28N 39°15' W 076°33'0 0.0
2017-Sep-17 11:58N 39°15' W 076°33'0 0.0
2017-Sep-17 11:25N 39°15' W 076°33'0 0.0
2017-Sep-17 10:55N 39°15' W 076°33'0 0.6
2017-Sep-17 10:31N 39°15' W 076°32'2 4.0
2017-Sep-17 10:01N 39°13' W 076°32'4 7.4
2017-Sep-17 09:30N 39°11' W 076°27'611.3
2017-Sep-17 09:00N 39°06' W 076°24'612.9
2017-Sep-17 08:30N 38°60' W 076°23'816.7
2017-Sep-17 08:01N 38°52' W 076°24'918.8
2017-Sep-17 07:31N 38°42' W 076°26'918.4
2017-Sep-17 07:00N 38°33' W 076°26'918.9
2017-Sep-17 06:31N 38°25' W 076°21'918.8
2017-Sep-17 06:01N 38°16' W 076°16'918.6
2017-Sep-17 05:31N 38°07' W 076°13'918.4
2017-Sep-17 05:01N 37°58' W 076°11'918.0
2017-Sep-17 04:31N 37°49' W 076°10'917.2
2017-Sep-17 04:01N 37°40' W 076°09'816.2
2017-Sep-17 03:31N 37°34' W 076°03'816.6
2017-Sep-17 03:00N 37°26' W 076°05'917.1
2017-Sep-17 02:31N 37°17' W 076°07'816.5
2017-Sep-17 02:00N 37°09' W 076°09'815.7
2017-Sep-17 01:30N 37°03' W 076°04'611.4
2017-Sep-17 01:00N 36°58' W 075°60'510.8
2017-Sep-17 00:30N 36°55' W 075°54'5 9.9
2017-Sep-17 00:00N 36°52' W 075°50'5 9.6
2017-Sep-16 23:31N 36°49' W 075°44'90 9.2
2017-Sep-16 13:47N 37°59' W 074°32'412.8
2017-Sep-16 13:30N 38°02' W 074°31'713.2
2017-Sep-16 12:59N 38°08' W 074°27'613.2
2017-Sep-16 12:30N 38°14' W 074°25'613.1
2017-Sep-16 12:01N 38°20' W 074°22'713.0
2017-Sep-16 11:30N 38°26' W 074°19'713.0
2017-Sep-16 11:00N 38°33' W 074°16'612.8
2017-Sep-16 10:30N 38°38' W 074°13'612.7
2017-Sep-16 10:01N 38°44' W 074°10'612.7
2017-Sep-16 09:30N 38°50' W 074°06'612.6
2017-Sep-16 09:00N 38°56' W 074°04'612.7
2017-Sep-16 08:31N 39°02' W 074°02'612.6
2017-Sep-16 08:00N 39°08' W 073°59'612.6
2017-Sep-16 07:30N 39°14' W 073°57'612.6
2017-Sep-16 07:00N 39°20' W 073°55'612.7
2017-Sep-16 06:30N 39°27' W 073°53'612.5
2017-Sep-16 06:00N 39°33' W 073°52'612.5
2017-Sep-16 05:30N 39°39' W 073°52'612.7
2017-Sep-16 05:00N 39°45' W 073°51'612.7
2017-Sep-16 04:30N 39°52' W 073°51'612.7
2017-Sep-16 04:00N 39°58' W 073°50'612.6
2017-Sep-16 03:30N 40°04' W 073°50'611.9
2017-Sep-16 02:58N 40°11' W 073°50'510.0
2017-Sep-16 02:30N 40°15' W 073°50'510.2
2017-Sep-16 02:00N 40°21' W 073°49'5 9.6
2017-Sep-16 01:30N 40°25' W 073°49'611.9
2017-Sep-16 01:00N 40°29' W 073°55'816.1
2017-Sep-16 00:30N 40°35' W 074°02'510.0
2017-Sep-16 00:00N 40°39' W 074°06'2 4.8
2017-Sep-15 23:30N 40°39' W 074°09'1 1.4
2017-Sep-15 23:00N 40°40' W 074°09'0 0.0
2017-Sep-15 22:30N 40°40' W 074°09'0 0.0
2017-Sep-15 22:00N 40°40' W 074°09'0 0.0
2017-Sep-15 21:30N 40°40' W 074°09'0 0.0
2017-Sep-15 21:00N 40°40' W 074°09'0 0.0
2017-Sep-15 20:30N 40°40' W 074°09'0 0.0
2017-Sep-15 20:00N 40°40' W 074°09'0 0.0
2017-Sep-15 19:30N 40°40' W 074°09'0 0.0
2017-Sep-15 19:00N 40°40' W 074°09'0 0.0
2017-Sep-15 18:30N 40°40' W 074°09'0 0.0
2017-Sep-15 18:00N 40°40' W 074°09'0 0.0
2017-Sep-15 17:30N 40°40' W 074°09'0 0.0
2017-Sep-15 17:00N 40°40' W 074°09'0 0.0
2017-Sep-15 16:30N 40°40' W 074°09'0 0.0
2017-Sep-15 16:00N 40°40' W 074°09'0 0.0
2017-Sep-15 15:30N 40°40' W 074°09'0 0.0
2017-Sep-15 15:00N 40°40' W 074°09'0 0.0
2017-Sep-15 14:30N 40°40' W 074°09'0 0.0
2017-Sep-15 13:59N 40°40' W 074°09'0 0.0
2017-Sep-15 13:29N 40°40' W 074°09'0 0.0
2017-Sep-15 12:59N 40°40' W 074°09'0 0.0
2017-Sep-15 12:29N 40°40' W 074°09'0 0.0
2017-Sep-15 11:59N 40°40' W 074°09'0 0.0
2017-Sep-15 11:29N 40°40' W 074°09'0 0.0
2017-Sep-15 10:59N 40°40' W 074°09'0 0.0
2017-Sep-15 10:29N 40°40' W 074°09'0 0.0
2017-Sep-15 09:59N 40°40' W 074°09'0 0.0
2017-Sep-15 09:29N 40°40' W 074°09'0 0.0
2017-Sep-15 08:59N 40°40' W 074°09'0 0.0
2017-Sep-15 08:29N 40°40' W 074°09'0 0.0
2017-Sep-15 07:59N 40°40' W 074°09'0 0.0
2017-Sep-15 07:29N 40°40' W 074°09'0 0.0
2017-Sep-15 06:59N 40°40' W 074°09'0 0.0
2017-Sep-15 06:29N 40°40' W 074°09'0 0.0
2017-Sep-15 05:59N 40°40' W 074°09'0 0.0
2017-Sep-15 05:29N 40°40' W 074°09'0 0.0
2017-Sep-15 04:59N 40°40' W 074°09'0 0.0
2017-Sep-15 04:29N 40°40' W 074°09'0 0.0
2017-Sep-15 03:59N 40°40' W 074°09'0 0.0
2017-Sep-15 03:29N 40°40' W 074°09'0 0.0
2017-Sep-15 02:59N 40°40' W 074°09'0 0.0
2017-Sep-15 02:29N 40°40' W 074°09'0 0.0
2017-Sep-15 01:59N 40°40' W 074°09'0 0.0
2017-Sep-15 01:29N 40°40' W 074°09'0 0.0
2017-Sep-15 00:59N 40°40' W 074°09'0 0.0
2017-Sep-15 00:29N 40°40' W 074°09'0 0.0
2017-Sep-14 23:59N 40°40' W 074°09'0 0.0
2017-Sep-14 23:29N 40°40' W 074°09'0 0.0
2017-Sep-14 22:59N 40°40' W 074°09'0 0.0
2017-Sep-14 22:29N 40°40' W 074°09'0 0.0
2017-Sep-14 21:56N 40°40' W 074°09'0 0.0
2017-Sep-14 21:29N 40°40' W 074°09'0 0.0
2017-Sep-14 20:59N 40°40' W 074°09'0 0.0
2017-Sep-14 20:29N 40°40' W 074°09'0 0.0
2017-Sep-14 19:59N 40°40' W 074°09'0 0.0
2017-Sep-14 19:29N 40°40' W 074°09'0 0.0
2017-Sep-14 18:59N 40°40' W 074°09'0 0.0
2017-Sep-14 18:29N 40°40' W 074°09'0 0.0
2017-Sep-14 17:59N 40°40' W 074°09'0 0.0
2017-Sep-14 17:29N 40°40' W 074°09'0 0.0
2017-Sep-14 16:59N 40°40' W 074°09'0 0.0
2017-Sep-14 16:29N 40°40' W 074°09'0 0.0
2017-Sep-14 15:59N 40°40' W 074°09'0 0.0
2017-Sep-14 15:29N 40°40' W 074°09'0 0.0
2017-Sep-14 14:59N 40°40' W 074°09'0 0.0
2017-Sep-14 14:29N 40°40' W 074°09'0 0.0
2017-Sep-14 13:59N 40°40' W 074°09'0 0.0
2017-Sep-14 13:29N 40°40' W 074°09'0 0.0
2017-Sep-14 12:59N 40°40' W 074°09'0 0.0
2017-Sep-14 12:29N 40°40' W 074°09'0 0.0
2017-Sep-14 11:59N 40°40' W 074°09'0 0.0
2017-Sep-14 11:29N 40°40' W 074°09'0 0.0
2017-Sep-14 10:59N 40°40' W 074°09'0 0.0
2017-Sep-14 10:29N 40°40' W 074°09'0 0.0
2017-Sep-14 09:59N 40°40' W 074°09'0 0.0
2017-Sep-14 09:29N 40°40' W 074°09'0 0.0
2017-Sep-14 08:59N 40°40' W 074°09'0 0.0
2017-Sep-14 08:29N 40°40' W 074°09'0 0.0
2017-Sep-14 07:59N 40°40' W 074°09'0 0.0
2017-Sep-14 07:29N 40°40' W 074°09'0 0.0
2017-Sep-14 06:59N 40°40' W 074°09'0 0.0
2017-Sep-14 06:29N 40°40' W 074°09'0 0.0
2017-Sep-14 05:59N 40°40' W 074°09'0 0.0
2017-Sep-14 05:28N 40°40' W 074°09'0 0.0
2017-Sep-14 04:58N 40°40' W 074°09'0 0.0
2017-Sep-14 04:28N 40°40' W 074°09'0 0.0
2017-Sep-14 03:58N 40°40' W 074°09'0 0.0
2017-Sep-14 03:28N 40°40' W 074°09'0 0.0
2017-Sep-14 02:58N 40°40' W 074°09'0 0.0
2017-Sep-14 02:28N 40°40' W 074°09'0 0.0
2017-Sep-14 01:58N 40°40' W 074°09'0 0.0
2017-Sep-14 01:28N 40°40' W 074°09'0 0.0
2017-Sep-14 00:58N 40°40' W 074°09'0 0.0
2017-Sep-14 00:25N 40°40' W 074°09'0 0.0
2017-Sep-13 23:58N 40°40' W 074°09'0 0.0
2017-Sep-13 23:28N 40°40' W 074°09'0 0.0
2017-Sep-13 22:58N 40°40' W 074°09'0 0.0
2017-Sep-13 22:28N 40°40' W 074°09'0 0.0
2017-Sep-13 21:58N 40°40' W 074°09'1 2.8
2017-Sep-13 21:30N 40°39' W 074°09'3 5.2
2017-Sep-13 21:00N 40°39' W 074°06'3 6.8
2017-Sep-13 20:30N 40°36' W 074°03'611.7
2017-Sep-13 20:00N 40°31' W 073°59'5 9.4
2017-Sep-13 19:30N 40°29' W 073°54'5 9.2
2017-Sep-13 19:00N 40°27' W 073°48'1 2.0
2017-Sep-13 18:30N 40°26' W 073°48'4 8.9
2017-Sep-13 18:00N 40°22' W 073°46'510.0
2017-Sep-13 17:30N 40°17' W 073°46'5 9.8
2017-Sep-13 17:00N 40°12' W 073°45'814.7
2017-Sep-13 16:28N 40°04' W 073°43'715.1
2017-Sep-13 16:00N 39°57' W 073°43'714.1
2017-Sep-13 15:28N 39°50' W 073°42'714.6
2017-Sep-13 15:00N 39°43' W 073°42'714.5
2017-Sep-13 14:29N 39°35' W 073°42'714.2
2017-Sep-13 14:00N 39°29' W 073°43'714.1
2017-Sep-13 13:30N 39°22' W 073°43'713.7
2017-Sep-13 13:00N 39°15' W 073°44'815.7
2017-Sep-13 12:30N 39°07' W 073°44'815.7
2017-Sep-13 12:00N 38°59' W 073°45'815.5
2017-Sep-13 11:30N 38°51' W 073°45'815.7
2017-Sep-13 11:00N 38°43' W 073°46'815.5
2017-Sep-13 10:30N 38°36' W 073°46'815.4
2017-Sep-13 10:00N 38°28' W 073°46'714.0
2017-Sep-13 09:30N 38°21' W 073°46'714.1
2017-Sep-13 09:00N 38°14' W 073°47'714.6
2017-Sep-13 08:30N 38°07' W 073°47'714.8
2017-Sep-13 08:00N 37°59' W 073°48'815.1
2017-Sep-13 07:30N 37°52' W 073°48'815.1
2017-Sep-13 07:00N 37°44' W 073°49'815.1
2017-Sep-13 06:28N 37°36' W 073°49'715.2
2017-Sep-13 06:00N 37°29' W 073°49'714.9
2017-Sep-13 05:30N 37°22' W 073°50'814.9
2017-Sep-13 04:59N 37°14' W 073°51'714.9
2017-Sep-13 04:31N 37°07' W 073°51'714.4
2017-Sep-13 04:00N 36°60' W 073°52'714.7
2017-Sep-13 03:30N 36°52' W 073°52'914.4
2017-Sep-13 02:53N 36°43' W 073°53'714.8
2017-Sep-13 02:24N 36°36' W 073°53'615.0
2017-Sep-13 02:00N 36°30' W 073°53'816.5
2017-Sep-13 01:30N 36°22' W 073°53'1018.0
2017-Sep-13 00:58N 36°12' W 073°54'817.9
2017-Sep-13 00:30N 36°04' W 073°55'917.6
2017-Sep-13 00:00N 35°55' W 073°55'2917.3
2017-Sep-12 22:20N 35°26' W 073°57'616.6
2017-Sep-12 21:59N 35°21' W 073°58'  

Dump ship's entire track history